sensor_id;sensor_type;location;lat;lon;timestamp;P1;durP1;ratioP1;P2;durP2;ratioP2
48685;SDS011;34485;51.536;3.816;2023-07-22T00:01:09;14.70;;;8.50;;
48685;SDS011;34485;51.536;3.816;2023-07-22T00:03:35;17.90;;;9.00;;
48685;SDS011;34485;51.536;3.816;2023-07-22T00:06:07;19.75;;;8.65;;
48685;SDS011;34485;51.536;3.816;2023-07-22T00:08:34;21.00;;;9.68;;
48685;SDS011;34485;51.536;3.816;2023-07-22T00:11:02;21.83;;;9.13;;
48685;SDS011;34485;51.536;3.816;2023-07-22T00:13:28;12.70;;;7.88;;
48685;SDS011;34485;51.536;3.816;2023-07-22T00:15:54;16.98;;;8.65;;
48685;SDS011;34485;51.536;3.816;2023-07-22T00:18:20;12.43;;;8.38;;
48685;SDS011;34485;51.536;3.816;2023-07-22T00:20:46;17.15;;;9.23;;
48685;SDS011;34485;51.536;3.816;2023-07-22T00:23:12;12.50;;;7.87;;
48685;SDS011;34485;51.536;3.816;2023-07-22T00:25:40;15.63;;;8.32;;
48685;SDS011;34485;51.536;3.816;2023-07-22T00:28:05;16.13;;;8.88;;
48685;SDS011;34485;51.536;3.816;2023-07-22T00:30:31;17.83;;;8.53;;
48685;SDS011;34485;51.536;3.816;2023-07-22T00:32:57;18.33;;;8.85;;
48685;SDS011;34485;51.536;3.816;2023-07-22T00:35:22;17.53;;;8.80;;
48685;SDS011;34485;51.536;3.816;2023-07-22T00:37:48;17.50;;;8.98;;
48685;SDS011;34485;51.536;3.816;2023-07-22T00:40:15;17.67;;;9.67;;
48685;SDS011;34485;51.536;3.816;2023-07-22T00:42:42;16.50;;;8.90;;
48685;SDS011;34485;51.536;3.816;2023-07-22T00:45:08;17.40;;;9.80;;
48685;SDS011;34485;51.536;3.816;2023-07-22T00:47:34;15.17;;;8.90;;
48685;SDS011;34485;51.536;3.816;2023-07-22T00:50:03;25.83;;;11.13;;
48685;SDS011;34485;51.536;3.816;2023-07-22T00:52:32;18.75;;;8.98;;
48685;SDS011;34485;51.536;3.816;2023-07-22T00:54:58;16.95;;;10.00;;
48685;SDS011;34485;51.536;3.816;2023-07-22T00:57:24;16.60;;;9.82;;
48685;SDS011;34485;51.536;3.816;2023-07-22T00:59:50;15.47;;;8.70;;
48685;SDS011;34485;51.536;3.816;2023-07-22T01:02:17;22.10;;;9.15;;
48685;SDS011;34485;51.536;3.816;2023-07-22T01:04:43;20.33;;;10.23;;
48685;SDS011;34485;51.536;3.816;2023-07-22T01:07:09;15.07;;;8.87;;
48685;SDS011;34485;51.536;3.816;2023-07-22T01:09:39;19.38;;;9.27;;
48685;SDS011;34485;51.536;3.816;2023-07-22T01:12:06;20.00;;;9.20;;
48685;SDS011;34485;51.536;3.816;2023-07-22T01:14:33;24.05;;;10.05;;
48685;SDS011;34485;51.536;3.816;2023-07-22T01:17:03;16.13;;;9.37;;
48685;SDS011;34485;51.536;3.816;2023-07-22T01:19:30;20.58;;;9.20;;
48685;SDS011;34485;51.536;3.816;2023-07-22T01:22:00;23.10;;;10.23;;
48685;SDS011;34485;51.536;3.816;2023-07-22T01:24:27;17.60;;;10.20;;
48685;SDS011;34485;51.536;3.816;2023-07-22T01:26:53;18.85;;;9.60;;
48685;SDS011;34485;51.536;3.816;2023-07-22T01:29:19;22.63;;;9.40;;
48685;SDS011;34485;51.536;3.816;2023-07-22T01:31:48;20.35;;;10.85;;
48685;SDS011;34485;51.536;3.816;2023-07-22T01:34:15;20.88;;;9.88;;
48685;SDS011;34485;51.536;3.816;2023-07-22T01:36:41;16.17;;;9.43;;
48685;SDS011;34485;51.536;3.816;2023-07-22T01:39:08;23.40;;;9.85;;
48685;SDS011;34485;51.536;3.816;2023-07-22T01:41:33;18.53;;;10.80;;
48685;SDS011;34485;51.536;3.816;2023-07-22T01:43:59;15.43;;;8.80;;
48685;SDS011;34485;51.536;3.816;2023-07-22T01:46:25;20.63;;;10.38;;
48685;SDS011;34485;51.536;3.816;2023-07-22T01:48:50;16.57;;;9.43;;
48685;SDS011;34485;51.536;3.816;2023-07-22T01:51:16;15.75;;;9.68;;
48685;SDS011;34485;51.536;3.816;2023-07-22T01:53:41;19.60;;;9.20;;
48685;SDS011;34485;51.536;3.816;2023-07-22T01:56:07;28.67;;;10.43;;
48685;SDS011;34485;51.536;3.816;2023-07-22T01:58:33;19.80;;;9.33;;
48685;SDS011;34485;51.536;3.816;2023-07-22T02:00:59;21.58;;;9.35;;
48685;SDS011;34485;51.536;3.816;2023-07-22T02:03:25;17.27;;;9.43;;
48685;SDS011;34485;51.536;3.816;2023-07-22T02:05:50;18.98;;;10.07;;
48685;SDS011;34485;51.536;3.816;2023-07-22T02:08:16;24.07;;;10.17;;
48685;SDS011;34485;51.536;3.816;2023-07-22T02:10:41;20.10;;;9.63;;
48685;SDS011;34485;51.536;3.816;2023-07-22T02:13:07;16.75;;;9.43;;
48685;SDS011;34485;51.536;3.816;2023-07-22T02:15:32;17.23;;;8.60;;
48685;SDS011;34485;51.536;3.816;2023-07-22T02:17:59;18.80;;;10.45;;
48685;SDS011;34485;51.536;3.816;2023-07-22T02:20:25;18.03;;;9.70;;
48685;SDS011;34485;51.536;3.816;2023-07-22T02:22:53;19.80;;;10.37;;
48685;SDS011;34485;51.536;3.816;2023-07-22T02:25:19;26.98;;;11.70;;
48685;SDS011;34485;51.536;3.816;2023-07-22T02:27:45;24.67;;;9.87;;
48685;SDS011;34485;51.536;3.816;2023-07-22T02:30:11;22.50;;;11.07;;
48685;SDS011;34485;51.536;3.816;2023-07-22T02:32:40;26.85;;;10.60;;
48685;SDS011;34485;51.536;3.816;2023-07-22T02:35:06;20.25;;;10.52;;
48685;SDS011;34485;51.536;3.816;2023-07-22T02:37:33;18.42;;;10.60;;
48685;SDS011;34485;51.536;3.816;2023-07-22T02:40:00;17.03;;;10.27;;
48685;SDS011;34485;51.536;3.816;2023-07-22T02:42:26;20.58;;;11.38;;
48685;SDS011;34485;51.536;3.816;2023-07-22T02:44:51;23.27;;;10.73;;
48685;SDS011;34485;51.536;3.816;2023-07-22T02:47:17;18.10;;;9.87;;
48685;SDS011;34485;51.536;3.816;2023-07-22T02:49:43;18.23;;;10.10;;
48685;SDS011;34485;51.536;3.816;2023-07-22T02:52:08;20.63;;;9.52;;
48685;SDS011;34485;51.536;3.816;2023-07-22T02:54:38;21.20;;;10.70;;
48685;SDS011;34485;51.536;3.816;2023-07-22T02:57:05;25.00;;;10.63;;
48685;SDS011;34485;51.536;3.816;2023-07-22T02:59:30;24.77;;;10.57;;
48685;SDS011;34485;51.536;3.816;2023-07-22T03:01:57;18.50;;;10.82;;
48685;SDS011;34485;51.536;3.816;2023-07-22T03:04:22;30.23;;;11.03;;
48685;SDS011;34485;51.536;3.816;2023-07-22T03:06:48;17.77;;;10.37;;
48685;SDS011;34485;51.536;3.816;2023-07-22T03:09:13;16.27;;;9.83;;
48685;SDS011;34485;51.536;3.816;2023-07-22T03:11:39;25.15;;;11.05;;
48685;SDS011;34485;51.536;3.816;2023-07-22T03:14:05;22.97;;;10.27;;
48685;SDS011;34485;51.536;3.816;2023-07-22T03:16:30;23.85;;;10.85;;
48685;SDS011;34485;51.536;3.816;2023-07-22T03:18:57;20.80;;;10.80;;
48685;SDS011;34485;51.536;3.816;2023-07-22T03:21:22;29.92;;;12.23;;
48685;SDS011;34485;51.536;3.816;2023-07-22T03:23:48;23.80;;;10.67;;
48685;SDS011;34485;51.536;3.816;2023-07-22T03:26:14;19.55;;;10.88;;
48685;SDS011;34485;51.536;3.816;2023-07-22T03:28:39;22.33;;;10.67;;
48685;SDS011;34485;51.536;3.816;2023-07-22T03:31:06;23.10;;;10.75;;
48685;SDS011;34485;51.536;3.816;2023-07-22T03:33:33;21.98;;;9.82;;
48685;SDS011;34485;51.536;3.816;2023-07-22T03:35:59;23.23;;;10.95;;
48685;SDS011;34485;51.536;3.816;2023-07-22T03:38:25;22.08;;;12.00;;
48685;SDS011;34485;51.536;3.816;2023-07-22T03:40:51;30.23;;;12.80;;
48685;SDS011;34485;51.536;3.816;2023-07-22T03:43:19;26.83;;;11.32;;
48685;SDS011;34485;51.536;3.816;2023-07-22T03:45:45;25.77;;;11.47;;
48685;SDS011;34485;51.536;3.816;2023-07-22T03:48:11;26.17;;;11.60;;
48685;SDS011;34485;51.536;3.816;2023-07-22T03:50:36;24.30;;;10.03;;
48685;SDS011;34485;51.536;3.816;2023-07-22T03:53:02;22.70;;;10.67;;
48685;SDS011;34485;51.536;3.816;2023-07-22T03:55:27;26.70;;;11.40;;
48685;SDS011;34485;51.536;3.816;2023-07-22T03:57:53;23.97;;;11.70;;
48685;SDS011;34485;51.536;3.816;2023-07-22T04:00:19;22.93;;;12.03;;
48685;SDS011;34485;51.536;3.816;2023-07-22T04:02:46;15.85;;;9.35;;
48685;SDS011;34485;51.536;3.816;2023-07-22T04:05:11;25.98;;;11.02;;
48685;SDS011;34485;51.536;3.816;2023-07-22T04:07:37;33.27;;;11.40;;
48685;SDS011;34485;51.536;3.816;2023-07-22T04:10:03;19.52;;;10.18;;
48685;SDS011;34485;51.536;3.816;2023-07-22T04:12:29;22.60;;;9.80;;
48685;SDS011;34485;51.536;3.816;2023-07-22T04:14:55;23.35;;;11.98;;
48685;SDS011;34485;51.536;3.816;2023-07-22T04:17:20;24.07;;;10.83;;
48685;SDS011;34485;51.536;3.816;2023-07-22T04:19:46;25.50;;;10.82;;
48685;SDS011;34485;51.536;3.816;2023-07-22T04:22:11;18.40;;;10.43;;
48685;SDS011;34485;51.536;3.816;2023-07-22T04:24:37;29.40;;;10.00;;
48685;SDS011;34485;51.536;3.816;2023-07-22T04:27:03;19.40;;;10.52;;
48685;SDS011;34485;51.536;3.816;2023-07-22T04:29:28;21.15;;;10.43;;
48685;SDS011;34485;51.536;3.816;2023-07-22T04:31:58;24.47;;;9.83;;
48685;SDS011;34485;51.536;3.816;2023-07-22T04:34:24;21.40;;;9.25;;
48685;SDS011;34485;51.536;3.816;2023-07-22T04:36:53;22.10;;;10.52;;
48685;SDS011;34485;51.536;3.816;2023-07-22T04:39:19;21.47;;;9.27;;
48685;SDS011;34485;51.536;3.816;2023-07-22T04:41:44;25.23;;;10.38;;
48685;SDS011;34485;51.536;3.816;2023-07-22T04:44:10;16.50;;;10.00;;
48685;SDS011;34485;51.536;3.816;2023-07-22T04:46:35;22.07;;;9.97;;
48685;SDS011;34485;51.536;3.816;2023-07-22T04:49:01;24.08;;;10.75;;
48685;SDS011;34485;51.536;3.816;2023-07-22T04:51:27;21.88;;;9.98;;
48685;SDS011;34485;51.536;3.816;2023-07-22T04:53:53;22.30;;;9.60;;
48685;SDS011;34485;51.536;3.816;2023-07-22T04:56:18;24.23;;;9.07;;
48685;SDS011;34485;51.536;3.816;2023-07-22T04:58:44;17.98;;;8.73;;
48685;SDS011;34485;51.536;3.816;2023-07-22T05:01:10;19.23;;;8.53;;
48685;SDS011;34485;51.536;3.816;2023-07-22T05:03:35;17.67;;;9.38;;
48685;SDS011;34485;51.536;3.816;2023-07-22T05:06:01;16.90;;;8.73;;
48685;SDS011;34485;51.536;3.816;2023-07-22T05:08:27;19.70;;;9.02;;
48685;SDS011;34485;51.536;3.816;2023-07-22T05:10:52;18.67;;;8.87;;
48685;SDS011;34485;51.536;3.816;2023-07-22T05:13:18;20.65;;;9.18;;
48685;SDS011;34485;51.536;3.816;2023-07-22T05:15:44;23.97;;;9.83;;
48685;SDS011;34485;51.536;3.816;2023-07-22T05:18:09;17.80;;;9.52;;
48685;SDS011;34485;51.536;3.816;2023-07-22T05:20:35;22.13;;;9.73;;
48685;SDS011;34485;51.536;3.816;2023-07-22T05:23:02;18.05;;;8.27;;
48685;SDS011;34485;51.536;3.816;2023-07-22T05:25:28;22.80;;;9.37;;
48685;SDS011;34485;51.536;3.816;2023-07-22T05:27:53;17.67;;;8.33;;
48685;SDS011;34485;51.536;3.816;2023-07-22T05:30:19;20.33;;;8.63;;
48685;SDS011;34485;51.536;3.816;2023-07-22T05:32:45;16.55;;;8.82;;
48685;SDS011;34485;51.536;3.816;2023-07-22T05:35:11;15.40;;;7.83;;
48685;SDS011;34485;51.536;3.816;2023-07-22T05:37:36;15.00;;;7.75;;
48685;SDS011;34485;51.536;3.816;2023-07-22T05:40:02;16.20;;;8.30;;
48685;SDS011;34485;51.536;3.816;2023-07-22T05:42:28;19.13;;;8.07;;
48685;SDS011;34485;51.536;3.816;2023-07-22T05:44:54;13.20;;;8.20;;
48685;SDS011;34485;51.536;3.816;2023-07-22T05:47:21;14.82;;;7.97;;
48685;SDS011;34485;51.536;3.816;2023-07-22T05:49:47;15.40;;;8.98;;
48685;SDS011;34485;51.536;3.816;2023-07-22T05:52:12;14.63;;;7.57;;
48685;SDS011;34485;51.536;3.816;2023-07-22T05:54:38;12.68;;;7.65;;
48685;SDS011;34485;51.536;3.816;2023-07-22T05:57:04;13.03;;;7.50;;
48685;SDS011;34485;51.536;3.816;2023-07-22T05:59:30;13.85;;;7.32;;
48685;SDS011;34485;51.536;3.816;2023-07-22T06:01:56;17.08;;;7.32;;
48685;SDS011;34485;51.536;3.816;2023-07-22T06:04:21;14.80;;;7.17;;
48685;SDS011;34485;51.536;3.816;2023-07-22T06:06:47;20.67;;;7.28;;
48685;SDS011;34485;51.536;3.816;2023-07-22T06:09:13;15.47;;;7.20;;
48685;SDS011;34485;51.536;3.816;2023-07-22T06:11:38;18.33;;;7.35;;
48685;SDS011;34485;51.536;3.816;2023-07-22T06:14:04;16.87;;;7.60;;
48685;SDS011;34485;51.536;3.816;2023-07-22T06:16:29;15.17;;;7.43;;
48685;SDS011;34485;51.536;3.816;2023-07-22T06:18:55;15.43;;;7.32;;
48685;SDS011;34485;51.536;3.816;2023-07-22T06:21:20;17.03;;;6.80;;
48685;SDS011;34485;51.536;3.816;2023-07-22T06:23:46;18.13;;;6.97;;
48685;SDS011;34485;51.536;3.816;2023-07-22T06:26:12;13.53;;;7.10;;
48685;SDS011;34485;51.536;3.816;2023-07-22T06:28:37;11.77;;;6.60;;
48685;SDS011;34485;51.536;3.816;2023-07-22T06:31:03;17.05;;;8.07;;
48685;SDS011;34485;51.536;3.816;2023-07-22T06:33:28;17.67;;;6.57;;
48685;SDS011;34485;51.536;3.816;2023-07-22T06:35:54;16.70;;;6.83;;
48685;SDS011;34485;51.536;3.816;2023-07-22T06:38:19;16.85;;;6.57;;
48685;SDS011;34485;51.536;3.816;2023-07-22T06:40:45;14.97;;;7.10;;
48685;SDS011;34485;51.536;3.816;2023-07-22T06:43:11;16.17;;;6.93;;
48685;SDS011;34485;51.536;3.816;2023-07-22T06:45:36;14.35;;;6.25;;
48685;SDS011;34485;51.536;3.816;2023-07-22T06:48:02;13.60;;;5.80;;
48685;SDS011;34485;51.536;3.816;2023-07-22T06:50:28;14.20;;;5.97;;
48685;SDS011;34485;51.536;3.816;2023-07-22T06:52:53;10.87;;;5.57;;
48685;SDS011;34485;51.536;3.816;2023-07-22T06:55:19;10.00;;;5.97;;
48685;SDS011;34485;51.536;3.816;2023-07-22T06:57:45;11.63;;;6.05;;
48685;SDS011;34485;51.536;3.816;2023-07-22T07:00:13;10.40;;;5.60;;
48685;SDS011;34485;51.536;3.816;2023-07-22T07:02:38;8.40;;;5.55;;
48685;SDS011;34485;51.536;3.816;2023-07-22T07:05:04;14.70;;;5.50;;
48685;SDS011;34485;51.536;3.816;2023-07-22T07:07:30;11.05;;;6.03;;
48685;SDS011;34485;51.536;3.816;2023-07-22T07:09:57;12.40;;;5.45;;
48685;SDS011;34485;51.536;3.816;2023-07-22T07:12:23;13.95;;;5.88;;
48685;SDS011;34485;51.536;3.816;2023-07-22T07:14:52;10.07;;;5.50;;
48685;SDS011;34485;51.536;3.816;2023-07-22T07:17:18;7.80;;;5.28;;
48685;SDS011;34485;51.536;3.816;2023-07-22T07:19:45;10.27;;;6.27;;
48685;SDS011;34485;51.536;3.816;2023-07-22T07:22:11;9.18;;;4.78;;
48685;SDS011;34485;51.536;3.816;2023-07-22T07:24:36;11.40;;;5.30;;
48685;SDS011;34485;51.536;3.816;2023-07-22T07:27:07;10.37;;;4.93;;
48685;SDS011;34485;51.536;3.816;2023-07-22T07:29:33;8.15;;;5.07;;
48685;SDS011;34485;51.536;3.816;2023-07-22T07:31:58;10.10;;;4.57;;
48685;SDS011;34485;51.536;3.816;2023-07-22T07:34:24;13.05;;;5.45;;
48685;SDS011;34485;51.536;3.816;2023-07-22T07:36:54;6.37;;;4.40;;
48685;SDS011;34485;51.536;3.816;2023-07-22T07:39:20;9.70;;;4.90;;
48685;SDS011;34485;51.536;3.816;2023-07-22T07:41:46;9.47;;;4.93;;
48685;SDS011;34485;51.536;3.816;2023-07-22T07:44:11;9.95;;;4.90;;
48685;SDS011;34485;51.536;3.816;2023-07-22T07:46:38;11.43;;;5.77;;
48685;SDS011;34485;51.536;3.816;2023-07-22T07:49:04;11.77;;;5.50;;
48685;SDS011;34485;51.536;3.816;2023-07-22T07:51:30;5.67;;;4.20;;
48685;SDS011;34485;51.536;3.816;2023-07-22T07:53:57;13.38;;;5.05;;
48685;SDS011;34485;51.536;3.816;2023-07-22T07:56:24;7.22;;;4.50;;
48685;SDS011;34485;51.536;3.816;2023-07-22T07:58:51;5.95;;;4.07;;
48685;SDS011;34485;51.536;3.816;2023-07-22T08:01:18;11.37;;;4.97;;
48685;SDS011;34485;51.536;3.816;2023-07-22T08:03:43;7.10;;;4.30;;
48685;SDS011;34485;51.536;3.816;2023-07-22T08:06:10;8.73;;;4.53;;
48685;SDS011;34485;51.536;3.816;2023-07-22T08:08:36;10.63;;;4.35;;
48685;SDS011;34485;51.536;3.816;2023-07-22T08:11:06;9.77;;;4.07;;
48685;SDS011;34485;51.536;3.816;2023-07-22T08:13:33;11.40;;;4.43;;
48685;SDS011;34485;51.536;3.816;2023-07-22T08:16:00;7.07;;;3.80;;
48685;SDS011;34485;51.536;3.816;2023-07-22T08:18:28;11.98;;;4.40;;
48685;SDS011;34485;51.536;3.816;2023-07-22T08:20:54;5.65;;;3.80;;
48685;SDS011;34485;51.536;3.816;2023-07-22T08:23:20;8.43;;;3.70;;
48685;SDS011;34485;51.536;3.816;2023-07-22T08:25:46;10.98;;;3.72;;
48685;SDS011;34485;51.536;3.816;2023-07-22T08:28:14;7.20;;;3.75;;
48685;SDS011;34485;51.536;3.816;2023-07-22T08:30:40;7.60;;;4.00;;
48685;SDS011;34485;51.536;3.816;2023-07-22T08:33:09;7.13;;;3.37;;
48685;SDS011;34485;51.536;3.816;2023-07-22T08:35:36;11.45;;;3.50;;
48685;SDS011;34485;51.536;3.816;2023-07-22T08:38:03;9.35;;;3.45;;
48685;SDS011;34485;51.536;3.816;2023-07-22T08:40:38;7.77;;;4.03;;
48685;SDS011;34485;51.536;3.816;2023-07-22T08:43:06;7.23;;;3.87;;
48685;SDS011;34485;51.536;3.816;2023-07-22T08:45:34;6.68;;;3.42;;
48685;SDS011;34485;51.536;3.816;2023-07-22T08:50:54;6.80;;;3.03;;
48685;SDS011;34485;51.536;3.816;2023-07-22T08:53:23;6.18;;;2.97;;
48685;SDS011;34485;51.536;3.816;2023-07-22T08:55:50;4.50;;;2.87;;
48685;SDS011;34485;51.536;3.816;2023-07-22T08:58:16;5.53;;;3.00;;
48685;SDS011;34485;51.536;3.816;2023-07-22T09:00:43;7.07;;;3.20;;
48685;SDS011;34485;51.536;3.816;2023-07-22T09:03:09;8.30;;;3.80;;
48685;SDS011;34485;51.536;3.816;2023-07-22T09:05:36;4.43;;;3.00;;
48685;SDS011;34485;51.536;3.816;2023-07-22T09:08:03;3.22;;;2.42;;
48685;SDS011;34485;51.536;3.816;2023-07-22T09:10:31;5.10;;;2.75;;
48685;SDS011;34485;51.536;3.816;2023-07-22T09:12:59;3.38;;;2.80;;
48685;SDS011;34485;51.536;3.816;2023-07-22T09:15:25;5.25;;;3.45;;
48685;SDS011;34485;51.536;3.816;2023-07-22T09:17:52;5.83;;;3.13;;
48685;SDS011;34485;51.536;3.816;2023-07-22T09:20:18;4.93;;;2.40;;
48685;SDS011;34485;51.536;3.816;2023-07-22T09:22:48;3.75;;;2.72;;
48685;SDS011;34485;51.536;3.816;2023-07-22T09:27:46;3.13;;;2.22;;
48685;SDS011;34485;51.536;3.816;2023-07-22T09:30:22;2.00;;;1.90;;
48685;SDS011;34485;51.536;3.816;2023-07-22T09:32:53;4.05;;;2.15;;
48685;SDS011;34485;51.536;3.816;2023-07-22T09:35:24;3.92;;;2.28;;
48685;SDS011;34485;51.536;3.816;2023-07-22T09:37:54;3.45;;;2.00;;
48685;SDS011;34485;51.536;3.816;2023-07-22T09:40:20;2.30;;;2.08;;
48685;SDS011;34485;51.536;3.816;2023-07-22T09:45:24;5.75;;;1.90;;
48685;SDS011;34485;51.536;3.816;2023-07-22T09:47:51;5.93;;;2.22;;
48685;SDS011;34485;51.536;3.816;2023-07-22T09:50:20;2.75;;;2.15;;
48685;SDS011;34485;51.536;3.816;2023-07-22T09:55:23;1.90;;;1.80;;
48685;SDS011;34485;51.536;3.816;2023-07-22T09:58:00;3.83;;;1.95;;
48685;SDS011;34485;51.536;3.816;2023-07-22T10:00:28;3.50;;;2.33;;
48685;SDS011;34485;51.536;3.816;2023-07-22T10:02:56;4.82;;;2.15;;
48685;SDS011;34485;51.536;3.816;2023-07-22T10:05:22;3.22;;;2.35;;
48685;SDS011;34485;51.536;3.816;2023-07-22T10:07:50;3.73;;;2.17;;
48685;SDS011;34485;51.536;3.816;2023-07-22T10:10:18;3.03;;;1.98;;
48685;SDS011;34485;51.536;3.816;2023-07-22T10:12:46;2.65;;;2.10;;
48685;SDS011;34485;51.536;3.816;2023-07-22T10:15:13;2.83;;;2.07;;
48685;SDS011;34485;51.536;3.816;2023-07-22T10:17:40;3.40;;;1.95;;
48685;SDS011;34485;51.536;3.816;2023-07-22T10:20:10;4.15;;;2.05;;
48685;SDS011;34485;51.536;3.816;2023-07-22T10:22:41;3.23;;;1.83;;
48685;SDS011;34485;51.536;3.816;2023-07-22T10:25:09;5.32;;;1.98;;
48685;SDS011;34485;51.536;3.816;2023-07-22T10:27:36;4.55;;;1.75;;
48685;SDS011;34485;51.536;3.816;2023-07-22T10:30:05;3.83;;;2.00;;
48685;SDS011;34485;51.536;3.816;2023-07-22T10:32:32;4.85;;;1.80;;
48685;SDS011;34485;51.536;3.816;2023-07-22T10:34:59;2.57;;;1.53;;
48685;SDS011;34485;51.536;3.816;2023-07-22T10:37:32;4.75;;;1.80;;
48685;SDS011;34485;51.536;3.816;2023-07-22T10:40:14;2.55;;;2.33;;
48685;SDS011;34485;51.536;3.816;2023-07-22T10:43:03;4.80;;;1.70;;
48685;SDS011;34485;51.536;3.816;2023-07-22T10:45:32;3.15;;;1.92;;
48685;SDS011;34485;51.536;3.816;2023-07-22T10:48:10;2.77;;;1.87;;
48685;SDS011;34485;51.536;3.816;2023-07-22T10:50:41;6.43;;;1.60;;
48685;SDS011;34485;51.536;3.816;2023-07-22T11:04:10;2.03;;;1.80;;
48685;SDS011;34485;51.536;3.816;2023-07-22T11:14:47;3.20;;;2.27;;
48685;SDS011;34485;51.536;3.816;2023-07-22T11:17:12;4.25;;;2.83;;
48685;SDS011;34485;51.536;3.816;2023-07-22T11:19:39;11.82;;;4.15;;
48685;SDS011;34485;51.536;3.816;2023-07-22T11:22:05;7.03;;;3.10;;
48685;SDS011;34485;51.536;3.816;2023-07-22T11:24:32;5.05;;;2.50;;
48685;SDS011;34485;51.536;3.816;2023-07-22T11:27:03;2.97;;;2.65;;
48685;SDS011;34485;51.536;3.816;2023-07-22T11:29:30;6.32;;;3.45;;
48685;SDS011;34485;51.536;3.816;2023-07-22T11:31:56;5.47;;;2.97;;
48685;SDS011;34485;51.536;3.816;2023-07-22T11:34:22;5.10;;;3.00;;
48685;SDS011;34485;51.536;3.816;2023-07-22T11:36:50;4.13;;;3.28;;
48685;SDS011;34485;51.536;3.816;2023-07-22T11:39:23;4.63;;;3.85;;
48685;SDS011;34485;51.536;3.816;2023-07-22T11:41:50;4.30;;;2.50;;
48685;SDS011;34485;51.536;3.816;2023-07-22T11:44:18;4.22;;;2.88;;
48685;SDS011;34485;51.536;3.816;2023-07-22T11:46:47;4.03;;;2.60;;
48685;SDS011;34485;51.536;3.816;2023-07-22T11:49:29;6.82;;;2.13;;
48685;SDS011;34485;51.536;3.816;2023-07-22T11:52:02;7.35;;;2.60;;
48685;SDS011;34485;51.536;3.816;2023-07-22T11:54:35;6.88;;;2.90;;
48685;SDS011;34485;51.536;3.816;2023-07-22T11:57:15;3.63;;;2.47;;
48685;SDS011;34485;51.536;3.816;2023-07-22T11:59:44;5.53;;;2.20;;
48685;SDS011;34485;51.536;3.816;2023-07-22T12:02:14;3.22;;;2.42;;
48685;SDS011;34485;51.536;3.816;2023-07-22T12:04:51;4.00;;;2.50;;
48685;SDS011;34485;51.536;3.816;2023-07-22T12:09:52;6.25;;;3.20;;
48685;SDS011;34485;51.536;3.816;2023-07-22T12:12:18;3.53;;;2.53;;
48685;SDS011;34485;51.536;3.816;2023-07-22T12:14:44;2.40;;;2.17;;
48685;SDS011;34485;51.536;3.816;2023-07-22T12:17:09;6.13;;;2.37;;
48685;SDS011;34485;51.536;3.816;2023-07-22T12:19:35;2.80;;;2.38;;
48685;SDS011;34485;51.536;3.816;2023-07-22T12:22:01;5.07;;;2.60;;
48685;SDS011;34485;51.536;3.816;2023-07-22T12:24:27;2.55;;;2.35;;
48685;SDS011;34485;51.536;3.816;2023-07-22T12:26:53;9.57;;;2.85;;
48685;SDS011;34485;51.536;3.816;2023-07-22T12:29:19;3.97;;;2.47;;
48685;SDS011;34485;51.536;3.816;2023-07-22T12:31:45;4.63;;;2.33;;
48685;SDS011;34485;51.536;3.816;2023-07-22T12:34:10;5.43;;;2.50;;
48685;SDS011;34485;51.536;3.816;2023-07-22T12:36:36;3.15;;;2.20;;
48685;SDS011;34485;51.536;3.816;2023-07-22T12:39:02;2.87;;;2.30;;
48685;SDS011;34485;51.536;3.816;2023-07-22T12:41:28;3.35;;;2.30;;
48685;SDS011;34485;51.536;3.816;2023-07-22T12:43:54;2.53;;;1.90;;
48685;SDS011;34485;51.536;3.816;2023-07-22T12:46:19;5.07;;;2.37;;
48685;SDS011;34485;51.536;3.816;2023-07-22T12:48:45;4.43;;;2.17;;
48685;SDS011;34485;51.536;3.816;2023-07-22T12:51:11;3.38;;;2.42;;
48685;SDS011;34485;51.536;3.816;2023-07-22T12:53:38;4.20;;;2.20;;
48685;SDS011;34485;51.536;3.816;2023-07-22T12:56:04;4.45;;;2.40;;
48685;SDS011;34485;51.536;3.816;2023-07-22T12:58:31;3.78;;;2.55;;
48685;SDS011;34485;51.536;3.816;2023-07-22T13:00:57;3.65;;;2.47;;
48685;SDS011;34485;51.536;3.816;2023-07-22T13:03:23;8.63;;;2.83;;
48685;SDS011;34485;51.536;3.816;2023-07-22T13:05:49;3.00;;;2.03;;
48685;SDS011;34485;51.536;3.816;2023-07-22T13:08:14;8.63;;;2.20;;
48685;SDS011;34485;51.536;3.816;2023-07-22T13:10:40;4.25;;;2.47;;
48685;SDS011;34485;51.536;3.816;2023-07-22T13:13:09;2.50;;;1.90;;
48685;SDS011;34485;51.536;3.816;2023-07-22T13:15:35;2.93;;;2.17;;
48685;SDS011;34485;51.536;3.816;2023-07-22T13:18:01;4.05;;;1.90;;
48685;SDS011;34485;51.536;3.816;2023-07-22T13:20:27;7.00;;;2.58;;
48685;SDS011;34485;51.536;3.816;2023-07-22T13:22:53;3.00;;;2.00;;
48685;SDS011;34485;51.536;3.816;2023-07-22T13:25:19;4.37;;;2.60;;
48685;SDS011;34485;51.536;3.816;2023-07-22T13:27:45;5.53;;;1.80;;
48685;SDS011;34485;51.536;3.816;2023-07-22T13:30:11;5.50;;;2.17;;
48685;SDS011;34485;51.536;3.816;2023-07-22T13:32:37;2.20;;;2.00;;
48685;SDS011;34485;51.536;3.816;2023-07-22T13:35:02;3.40;;;2.10;;
48685;SDS011;34485;51.536;3.816;2023-07-22T13:37:29;8.83;;;2.50;;
48685;SDS011;34485;51.536;3.816;2023-07-22T13:39:55;3.53;;;2.13;;
48685;SDS011;34485;51.536;3.816;2023-07-22T13:42:22;4.30;;;2.30;;
48685;SDS011;34485;51.536;3.816;2023-07-22T13:44:48;6.40;;;2.37;;
48685;SDS011;34485;51.536;3.816;2023-07-22T13:47:13;9.57;;;2.83;;
48685;SDS011;34485;51.536;3.816;2023-07-22T13:49:39;3.60;;;2.03;;
48685;SDS011;34485;51.536;3.816;2023-07-22T13:52:04;8.93;;;2.60;;
48685;SDS011;34485;51.536;3.816;2023-07-22T13:54:30;2.80;;;1.90;;
48685;SDS011;34485;51.536;3.816;2023-07-22T13:56:59;2.53;;;1.90;;
48685;SDS011;34485;51.536;3.816;2023-07-22T13:59:24;8.83;;;2.50;;
48685;SDS011;34485;51.536;3.816;2023-07-22T14:01:50;2.45;;;2.03;;
48685;SDS011;34485;51.536;3.816;2023-07-22T14:04:16;11.70;;;2.93;;
48685;SDS011;34485;51.536;3.816;2023-07-22T14:06:41;3.57;;;1.97;;
48685;SDS011;34485;51.536;3.816;2023-07-22T14:09:07;11.60;;;2.45;;
48685;SDS011;34485;51.536;3.816;2023-07-22T14:11:33;7.07;;;2.37;;
48685;SDS011;34485;51.536;3.816;2023-07-22T14:13:59;9.37;;;2.60;;
48685;SDS011;34485;51.536;3.816;2023-07-22T14:16:25;4.43;;;1.90;;
48685;SDS011;34485;51.536;3.816;2023-07-22T14:18:50;2.63;;;1.80;;
48685;SDS011;34485;51.536;3.816;2023-07-22T14:21:17;4.95;;;2.03;;
48685;SDS011;34485;51.536;3.816;2023-07-22T14:23:43;6.78;;;2.30;;
48685;SDS011;34485;51.536;3.816;2023-07-22T14:26:09;9.70;;;2.00;;
48685;SDS011;34485;51.536;3.816;2023-07-22T14:28:34;3.42;;;1.70;;
48685;SDS011;34485;51.536;3.816;2023-07-22T14:31:00;5.20;;;1.83;;
48685;SDS011;34485;51.536;3.816;2023-07-22T14:33:26;3.85;;;1.95;;
48685;SDS011;34485;51.536;3.816;2023-07-22T14:35:52;10.20;;;3.53;;
48685;SDS011;34485;51.536;3.816;2023-07-22T14:38:17;3.77;;;1.77;;
48685;SDS011;34485;51.536;3.816;2023-07-22T14:40:43;6.63;;;1.80;;
48685;SDS011;34485;51.536;3.816;2023-07-22T14:43:08;3.73;;;1.90;;
48685;SDS011;34485;51.536;3.816;2023-07-22T14:45:34;5.07;;;2.20;;
48685;SDS011;34485;51.536;3.816;2023-07-22T14:47:59;4.73;;;1.93;;
48685;SDS011;34485;51.536;3.816;2023-07-22T14:50:25;5.67;;;2.07;;
48685;SDS011;34485;51.536;3.816;2023-07-22T14:52:51;6.05;;;2.00;;
48685;SDS011;34485;51.536;3.816;2023-07-22T14:55:16;5.13;;;1.93;;
48685;SDS011;34485;51.536;3.816;2023-07-22T14:57:42;4.75;;;2.03;;
48685;SDS011;34485;51.536;3.816;2023-07-22T15:00:07;3.83;;;2.20;;
48685;SDS011;34485;51.536;3.816;2023-07-22T15:02:34;7.80;;;1.95;;
48685;SDS011;34485;51.536;3.816;2023-07-22T15:05:00;5.38;;;2.00;;
48685;SDS011;34485;51.536;3.816;2023-07-22T15:07:25;2.67;;;1.70;;